Time;durP1;ratioP1;P1;durP2;ratioP2;P2;SDS_P1;SDS_P2;PMS_P1;PMS_P2;Temp;Humidity;BMP_temperature;BMP_pressure;BME280_temperature;BME280_humidity;BME280_pressure;Samples;Min_cycle;Max_cycle;Signal;HPM_P1;HPM_P2
2021/01/22 00:00:11;;;;;;;22.60;9.13;;;2.80;99.90;;;;;;5011014;28;20450;-81
2021/01/22 00:02:37;;;;;;;21.90;9.88;;;2.80;99.90;;;;;;5010848;28;20053;-81
2021/01/22 00:05:03;;;;;;;15.82;8.18;;;2.80;99.90;;;;;;5010696;28;20052;-80
2021/01/22 00:07:29;;;;;;;20.83;8.80;;;2.80;99.90;;;;;;4994376;28;20449;-81
2021/01/22 00:09:54;;;;;;;21.70;8.68;;;2.70;99.90;;;;;;5010768;28;20053;-81
2021/01/22 00:12:20;;;;;;;29.13;8.30;;;2.70;99.90;;;;;;5010503;28;20030;-79
2021/01/22 00:14:49;;;;;;;17.15;8.15;;;2.70;99.90;;;;;;5010532;28;20045;-81
2021/01/22 00:17:15;;;;;;;22.27;8.60;;;2.70;99.90;;;;;;5010392;28;20058;-81
2021/01/22 00:19:42;;;;;;;21.77;8.80;;;2.70;99.90;;;;;;5010480;28;20038;-79
2021/01/22 00:22:08;;;;;;;21.70;9.73;;;2.70;99.90;;;;;;5027136;28;20022;-82
2021/01/22 00:24:33;;;;;;;27.23;10.15;;;2.70;99.90;;;;;;5027051;28;20076;-81
2021/01/22 00:26:59;;;;;;;20.52;8.98;;;2.70;99.90;;;;;;5010636;28;20026;-80
2021/01/22 00:29:25;;;;;;;30.35;11.20;;;2.70;99.90;;;;;;5027034;28;20080;-80
2021/01/22 00:31:51;;;;;;;23.38;10.05;;;2.60;99.90;;;;;;5010501;28;20098;-83
2021/01/22 00:34:17;;;;;;;24.38;9.73;;;2.60;99.90;;;;;;5026918;28;20124;-82
2021/01/22 00:36:42;;;;;;;25.38;9.20;;;2.60;99.90;;;;;;5026823;28;20030;-83
2021/01/22 00:39:08;;;;;;;26.30;9.98;;;2.60;99.90;;;;;;5026694;28;20507;-81
2021/01/22 00:41:34;;;;;;;20.40;9.55;;;2.60;99.90;;;;;;5010534;28;20026;-78
2021/01/22 00:43:59;;;;;;;25.65;11.02;;;2.60;99.90;;;;;;5026734;28;20434;-81
2021/01/22 00:46:25;;;;;;;23.33;10.25;;;2.60;99.90;;;;;;5027774;28;20484;-79
2021/01/22 00:48:51;;;;;;;20.92;9.88;;;2.60;99.90;;;;;;5026612;28;20036;-82
2021/01/22 00:51:17;;;;;;;33.63;10.32;;;2.50;99.90;;;;;;5026707;28;20384;-79
2021/01/22 00:53:43;;;;;;;22.05;9.20;;;2.50;99.90;;;;;;5026649;28;20057;-80
2021/01/22 00:56:08;;;;;;;28.50;10.10;;;2.50;99.90;;;;;;5027940;28;20067;-80
2021/01/22 00:58:34;;;;;;;21.92;9.75;;;2.50;99.90;;;;;;5010233;28;20029;-80
2021/01/22 01:01:00;;;;;;;28.42;9.65;;;2.50;99.90;;;;;;5026798;28;20119;-82
2021/01/22 01:03:26;;;;;;;21.90;8.25;;;2.50;99.90;;;;;;5026716;28;20033;-81
2021/01/22 01:05:51;;;;;;;19.48;7.90;;;2.40;99.90;;;;;;5026686;28;20026;-82
2021/01/22 01:08:17;;;;;;;17.45;7.70;;;2.40;99.90;;;;;;5028031;28;20112;-81
2021/01/22 01:10:43;;;;;;;22.15;8.88;;;2.40;99.90;;;;;;5028305;28;20030;-79
2021/01/22 01:13:09;;;;;;;22.85;7.50;;;2.40;99.90;;;;;;5010593;28;20461;-79
2021/01/22 01:15:34;;;;;;;21.85;7.80;;;2.40;99.90;;;;;;4994343;28;20037;-78
2021/01/22 01:18:00;;;;;;;18.15;7.63;;;2.30;99.90;;;;;;5027694;28;20447;-80
2021/01/22 01:20:26;;;;;;;20.02;7.00;;;2.30;99.90;;;;;;5010031;28;20025;-79
2021/01/22 01:22:51;;;;;;;24.30;6.80;;;2.30;99.90;;;;;;5027960;28;20033;-81
2021/01/22 01:25:17;;;;;;;19.02;7.57;;;2.30;99.90;;;;;;5009965;28;20686;-80
2021/01/22 01:27:43;;;;;;;21.77;7.28;;;2.20;99.90;;;;;;5027529;28;20388;-79
2021/01/22 01:30:09;;;;;;;18.67;7.72;;;2.20;99.90;;;;;;5026045;28;20348;-80
2021/01/22 01:32:35;;;;;;;17.60;6.90;;;2.20;99.90;;;;;;5027454;28;20055;-80
2021/01/22 01:35:01;;;;;;;25.52;8.50;;;2.20;99.90;;;;;;5026169;28;20017;-81
2021/01/22 01:37:26;;;;;;;20.35;8.25;;;2.20;99.90;;;;;;5026348;28;20032;-82
2021/01/22 01:39:52;;;;;;;19.92;7.18;;;2.20;99.90;;;;;;5026101;28;20503;-79
2021/01/22 01:42:18;;;;;;;23.90;8.05;;;2.10;99.90;;;;;;5010017;28;20033;-82
2021/01/22 01:44:43;;;;;;;17.45;7.00;;;2.10;99.90;;;;;;5028931;28;20078;-80
2021/01/22 01:47:09;;;;;;;18.60;8.25;;;2.10;99.90;;;;;;5031538;28;20037;-80
2021/01/22 01:49:35;;;;;;;17.98;7.28;;;2.10;99.90;;;;;;5029549;28;20104;-83
2021/01/22 01:52:01;;;;;;;23.50;7.18;;;2.10;99.90;;;;;;5029726;28;20033;-83
2021/01/22 01:54:27;;;;;;;22.08;7.25;;;2.10;99.90;;;;;;5013288;28;20033;-79
2021/01/22 01:56:53;;;;;;;22.25;7.10;;;2.10;99.90;;;;;;5029459;28;20124;-81
2021/01/22 01:59:18;;;;;;;20.70;6.93;;;2.10;99.90;;;;;;5029284;28;20036;-83
2021/01/22 02:01:44;;;;;;;16.13;7.07;;;2.10;99.90;;;;;;5013015;28;20040;-81
2021/01/22 02:04:11;;;;;;;22.05;7.15;;;2.10;99.90;;;;;;5030555;28;20488;-78
2021/01/22 02:06:37;;;;;;;18.30;6.50;;;2.10;99.90;;;;;;5030432;28;20457;-80
2021/01/22 02:09:03;;;;;;;19.48;7.70;;;2.10;99.90;;;;;;5012661;28;20112;-79
2021/01/22 02:11:30;;;;;;;22.33;8.07;;;2.10;99.90;;;;;;5029379;28;20026;-83
2021/01/22 02:13:57;;;;;;;23.10;8.07;;;2.10;99.90;;;;;;5012903;28;20034;-81
2021/01/22 02:16:24;;;;;;;27.30;8.90;;;2.10;99.90;;;;;;4996068;28;20427;-80
2021/01/22 02:18:53;;;;;;;31.30;9.27;;;2.10;99.90;;;;;;5029016;28;20091;-81
2021/01/22 02:21:32;;;;;;;25.40;9.30;;;2.20;99.90;;;;;;5029214;28;20028;-80
2021/01/22 02:24:09;;;;;;;19.42;7.85;;;2.10;99.90;;;;;;5031514;28;20029;-81
2021/01/22 02:26:58;;;;;;;24.88;7.22;;;2.20;99.90;;;;;;5029333;28;20076;-81
2021/01/22 02:29:26;;;;;;;21.67;7.43;;;2.20;99.90;;;;;;5030014;28;20357;-80
2021/01/22 02:31:54;;;;;;;22.67;7.22;;;2.20;99.90;;;;;;5029047;28;20032;-81
2021/01/22 02:34:25;;;;;;;19.02;7.18;;;2.20;99.90;;;;;;5030032;28;20056;-79
2021/01/22 02:36:55;;;;;;;25.63;6.68;;;2.20;99.90;;;;;;5028969;28;20029;-78
2021/01/22 02:39:25;;;;;;;23.27;7.50;;;2.10;99.90;;;;;;5028499;28;20056;-79
2021/01/22 02:41:55;;;;;;;16.80;6.75;;;2.20;99.90;;;;;;5029199;28;20017;-83
2021/01/22 02:44:22;;;;;;;27.25;9.13;;;2.20;99.90;;;;;;5030543;28;20018;-82
2021/01/22 02:46:48;;;;;;;20.33;7.25;;;2.20;99.90;;;;;;5028585;28;20087;-80
2021/01/22 02:49:14;;;;;;;22.77;7.43;;;2.20;99.90;;;;;;5028679;28;20029;-81
2021/01/22 02:51:40;;;;;;;25.88;6.85;;;2.20;99.90;;;;;;5028484;28;20504;-81
2021/01/22 02:54:06;;;;;;;23.67;8.18;;;2.30;99.90;;;;;;5028452;28;20504;-80
2021/01/22 02:56:48;;;;;;;23.60;6.43;;;2.30;99.90;;;;;;5028627;28;20067;-81
2021/01/22 02:59:23;;;;;;;18.60;6.15;;;2.30;99.90;;;;;;5030338;28;20025;-82
2021/01/22 03:02:25;;;;;;;19.55;5.97;;;2.40;99.90;;;;;;5029903;28;20097;-81
2021/01/22 03:04:53;;;;;;;16.42;6.47;;;2.40;99.90;;;;;;5029615;28;20022;-81
2021/01/22 03:07:34;;;;;;;18.33;5.88;;;2.50;99.90;;;;;;5028392;28;20061;-82
2021/01/22 03:10:01;;;;;;;26.23;6.30;;;2.40;99.90;;;;;;5029462;28;20083;-81
2021/01/22 03:12:29;;;;;;;14.32;5.53;;;2.50;99.90;;;;;;5029410;28;20510;-80
2021/01/22 03:14:58;;;;;;;14.15;5.78;;;2.50;99.90;;;;;;5028511;28;20088;-78
2021/01/22 03:17:24;;;;;;;14.10;6.15;;;2.50;99.90;;;;;;5027767;28;20096;-78
2021/01/22 03:19:50;;;;;;;15.70;6.18;;;2.50;99.90;;;;;;5011424;28;20041;-83
2021/01/22 03:22:15;;;;;;;18.95;5.35;;;2.50;99.90;;;;;;5029507;28;20431;-78
2021/01/22 03:24:42;;;;;;;16.50;6.50;;;2.60;99.90;;;;;;5029722;28;20477;-82
2021/01/22 03:27:09;;;;;;;21.27;6.43;;;2.60;99.90;;;;;;5027987;28;20488;-81
2021/01/22 03:29:35;;;;;;;16.35;6.18;;;2.60;99.90;;;;;;5029169;28;20049;-83
2021/01/22 03:32:02;;;;;;;15.43;5.85;;;2.60;99.90;;;;;;5029095;28;20079;-80
2021/01/22 03:34:27;;;;;;;16.83;6.35;;;2.70;99.90;;;;;;5028926;28;20027;-82
2021/01/22 03:36:57;;;;;;;26.02;7.40;;;2.70;99.90;;;;;;5027816;28;20594;-81
2021/01/22 03:39:24;;;;;;;22.83;7.03;;;2.70;99.90;;;;;;5010853;28;20041;-78
2021/01/22 03:41:50;;;;;;;19.98;6.75;;;2.80;99.90;;;;;;5028799;28;20173;-81
2021/01/22 03:44:17;;;;;;;20.63;7.18;;;2.80;99.90;;;;;;5028733;28;20112;-80
2021/01/22 03:46:43;;;;;;;15.77;5.90;;;2.80;99.90;;;;;;5028516;28;20029;-80
2021/01/22 03:49:09;;;;;;;18.13;7.20;;;2.90;99.90;;;;;;5027131;28;20029;-80
2021/01/22 03:51:35;;;;;;;19.05;6.60;;;2.90;99.90;;;;;;5011261;28;20094;-79
2021/01/22 03:54:01;;;;;;;21.60;5.85;;;2.90;99.90;;;;;;5027238;28;20543;-80
2021/01/22 03:56:26;;;;;;;24.58;6.60;;;2.90;99.90;;;;;;5010673;28;20077;-83
2021/01/22 03:58:52;;;;;;;19.77;6.20;;;2.80;99.90;;;;;;5027401;28;20041;-80
2021/01/22 04:01:20;;;;;;;17.80;6.03;;;2.80;99.90;;;;;;5027148;28;20396;-83
2021/01/22 04:03:46;;;;;;;17.90;5.93;;;2.80;99.90;;;;;;5027371;28;20401;-81
2021/01/22 04:06:11;;;;;;;16.80;5.75;;;2.70;99.90;;;;;;5026729;28;20030;-79
2021/01/22 04:08:37;;;;;;;20.58;5.95;;;2.70;99.90;;;;;;5027106;28;20034;-80
2021/01/22 04:11:03;;;;;;;20.45;5.38;;;2.70;99.90;;;;;;5010733;28;20030;-79
2021/01/22 04:13:28;;;;;;;20.30;5.93;;;2.60;99.90;;;;;;5027259;28;20507;-79
2021/01/22 04:15:54;;;;;;;13.70;5.70;;;2.60;99.90;;;;;;5028035;28;20479;-81
2021/01/22 04:18:20;;;;;;;14.02;5.90;;;2.60;99.90;;;;;;4993815;28;20076;-81
2021/01/22 04:20:45;;;;;;;15.90;5.68;;;2.60;99.90;;;;;;5010629;28;20536;-79
2021/01/22 04:23:11;;;;;;;15.63;5.40;;;2.60;99.90;;;;;;5027265;28;20104;-82
2021/01/22 04:25:37;;;;;;;24.35;6.20;;;2.60;99.90;;;;;;4994526;28;20119;-82
2021/01/22 04:28:03;;;;;;;15.15;5.43;;;2.60;99.90;;;;;;5027141;28;20091;-83
2021/01/22 04:30:29;;;;;;;20.88;7.35;;;2.50;99.90;;;;;;5028184;28;20036;-78
2021/01/22 04:32:54;;;;;;;19.30;6.28;;;2.50;99.90;;;;;;4994180;28;20030;-78
2021/01/22 04:35:20;;;;;;;15.57;5.72;;;2.50;99.90;;;;;;5010725;28;20065;-80
2021/01/22 04:37:46;;;;;;;17.13;5.80;;;2.50;99.90;;;;;;5026702;28;20032;-79
2021/01/22 04:40:12;;;;;;;14.52;6.47;;;2.40;99.90;;;;;;5010772;28;20032;-81
2021/01/22 04:42:42;;;;;;;15.50;5.75;;;2.40;99.90;;;;;;5027342;28;20112;-82
2021/01/22 04:45:10;;;;;;;16.02;6.85;;;2.40;99.90;;;;;;5027058;28;20028;-81
2021/01/22 04:47:38;;;;;;;20.58;5.75;;;2.40;99.90;;;;;;5026922;28;20021;-82
2021/01/22 04:50:05;;;;;;;16.33;6.10;;;2.40;99.90;;;;;;5028015;28;20036;-79
2021/01/22 04:52:33;;;;;;;19.83;6.10;;;2.40;99.90;;;;;;5028189;28;20049;-79
2021/01/22 04:55:02;;;;;;;14.00;5.53;;;2.40;99.90;;;;;;5027794;28;20503;-78
2021/01/22 04:57:30;;;;;;;18.98;6.43;;;2.40;99.90;;;;;;5026625;28;20075;-80
2021/01/22 04:59:56;;;;;;;17.40;5.97;;;2.40;99.90;;;;;;5026926;28;20125;-81
2021/01/22 05:02:23;;;;;;;14.93;6.25;;;2.40;99.90;;;;;;5027793;28;20104;-81
2021/01/22 05:04:51;;;;;;;18.00;6.50;;;2.40;99.90;;;;;;5026523;28;20028;-80
2021/01/22 05:07:21;;;;;;;14.57;6.30;;;2.40;99.90;;;;;;5026416;28;20026;-79
2021/01/22 05:09:47;;;;;;;15.70;6.28;;;2.30;99.90;;;;;;5026268;28;20281;-80
2021/01/22 05:12:12;;;;;;;14.32;6.30;;;2.30;99.90;;;;;;5026495;28;20064;-82
2021/01/22 05:14:38;;;;;;;17.83;5.57;;;2.30;99.90;;;;;;5027843;28;20063;-79
2021/01/22 05:17:09;;;;;;;25.58;5.70;;;2.30;99.90;;;;;;5027609;28;20396;-82
2021/01/22 05:19:37;;;;;;;23.60;7.60;;;2.30;99.90;;;;;;5013601;28;20095;-79
2021/01/22 05:22:04;;;;;;;19.65;6.35;;;2.30;99.90;;;;;;5031276;28;20044;-80
2021/01/22 05:24:30;;;;;;;16.40;6.53;;;2.30;99.90;;;;;;5013275;28;20531;-81
2021/01/22 05:26:59;;;;;;;21.02;6.25;;;2.30;99.90;;;;;;5030230;28;20030;-78
2021/01/22 05:29:25;;;;;;;17.50;5.72;;;2.30;99.90;;;;;;5029783;28;20032;-79
2021/01/22 05:31:51;;;;;;;28.27;6.72;;;2.30;99.90;;;;;;5029851;28;20069;-80
2021/01/22 05:34:16;;;;;;;18.52;6.22;;;2.30;99.90;;;;;;5029984;28;20053;-83
2021/01/22 05:36:42;;;;;;;20.85;5.97;;;2.30;99.90;;;;;;5031312;28;20034;-80
2021/01/22 05:39:18;;;;;;;16.58;6.10;;;2.20;99.90;;;;;;4997013;28;20033;-79
2021/01/22 05:41:54;;;;;;;16.75;5.75;;;2.20;99.90;;;;;;5029874;28;20030;-81
2021/01/22 05:44:21;;;;;;;18.65;5.85;;;2.20;99.90;;;;;;5030048;28;20029;-80
2021/01/22 05:47:19;;;;;;;12.23;5.15;;;2.20;99.90;;;;;;5031274;28;20441;-81
2021/01/22 05:50:04;;;;;;;21.05;5.38;;;2.10;99.90;;;;;;5007387;28;20463;-81
2021/01/22 05:52:29;;;;;;;18.75;5.15;;;2.10;99.90;;;;;;5029588;28;20084;-80
2021/01/22 05:54:55;;;;;;;15.02;5.53;;;2.10;99.90;;;;;;5013349;28;20037;-82
2021/01/22 05:57:23;;;;;;;16.40;5.32;;;2.10;99.90;;;;;;5029380;28;20033;-80
2021/01/22 06:00:09;;;;;;;13.10;5.78;;;2.10;99.90;;;;;;5013567;28;20025;-81
2021/01/22 06:02:35;;;;;;;16.40;6.82;;;2.10;99.90;;;;;;5029608;28;20392;-81
2021/01/22 06:05:08;;;;;;;15.63;5.50;;;2.10;99.90;;;;;;5030647;28;20103;-83
2021/01/22 06:07:39;;;;;;;19.33;6.00;;;2.00;99.90;;;;;;5029619;28;20492;-82
2021/01/22 06:10:22;;;;;;;23.33;7.38;;;2.10;99.90;;;;;;5030845;28;20030;-80
2021/01/22 06:12:53;;;;;;;19.60;6.13;;;2.10;99.90;;;;;;5029794;28;20040;-82
2021/01/22 06:15:23;;;;;;;11.93;5.15;;;2.00;99.90;;;;;;5030482;28;20468;-81
2021/01/22 06:17:53;;;;;;;19.35;5.47;;;2.10;99.90;;;;;;5028966;28;20053;-81
2021/01/22 06:20:23;;;;;;;18.25;4.72;;;2.10;99.90;;;;;;5029241;28;20464;-79
2021/01/22 06:22:52;;;;;;;11.02;4.63;;;2.10;99.90;;;;;;5029064;28;20060;-81
2021/01/22 06:25:18;;;;;;;14.10;6.25;;;2.20;99.90;;;;;;5030423;28;20376;-78
2021/01/22 06:27:46;;;;;;;13.57;5.00;;;2.30;99.90;;;;;;5012857;28;20049;-81
2021/01/22 06:30:13;;;;;;;23.63;5.38;;;2.40;99.90;;;;;;5028050;28;20026;-80
2021/01/22 06:32:40;;;;;;;14.35;5.50;;;2.50;99.90;;;;;;5012313;28;20033;-80
2021/01/22 06:35:08;;;;;;;18.70;5.18;;;2.60;99.90;;;;;;5012255;28;20116;-83
2021/01/22 06:37:35;;;;;;;14.93;4.97;;;2.70;99.90;;;;;;5012925;28;20029;-81
2021/01/22 06:40:03;;;;;;;16.63;4.93;;;2.80;99.90;;;;;;5030075;28;20026;-80
2021/01/22 06:42:35;;;;;;;14.82;5.13;;;2.80;99.90;;;;;;5028860;28;20029;-82
2021/01/22 06:45:00;;;;;;;21.85;4.68;;;2.80;99.90;;;;;;5030130;28;20045;-79
2021/01/22 06:47:26;;;;;;;23.42;6.57;;;2.90;99.90;;;;;;5028554;28;20029;-80
2021/01/22 06:49:52;;;;;;;13.10;4.15;;;2.90;99.90;;;;;;5012097;28;20587;-82
2021/01/22 06:52:18;;;;;;;16.88;5.10;;;2.90;99.90;;;;;;5028352;28;20043;-81
2021/01/22 06:55:03;;;;;;;16.02;4.68;;;3.00;99.90;;;;;;5028401;28;20112;-83
2021/01/22 06:57:30;;;;;;;18.15;5.40;;;2.90;99.90;;;;;;5029438;28;20510;-78
2021/01/22 06:59:57;;;;;;;17.38;4.82;;;2.90;99.90;;;;;;5029470;28;20495;-79
2021/01/22 07:02:31;;;;;;;15.10;4.97;;;2.80;99.90;;;;;;5028387;28;20034;-79
2021/01/22 07:04:57;;;;;;;13.07;4.88;;;2.70;99.90;;;;;;5028056;28;20021;-81
2021/01/22 07:07:45;;;;;;;18.10;5.05;;;2.70;99.90;;;;;;5011600;28;20358;-80
2021/01/22 07:10:11;;;;;;;10.57;4.90;;;2.60;99.90;;;;;;5028099;28;20476;-78
2021/01/22 07:12:37;;;;;;;13.48;5.03;;;2.50;99.90;;;;;;5028665;28;20030;-80
2021/01/22 07:15:21;;;;;;;16.02;4.53;;;2.50;99.90;;;;;;5028669;28;20025;-79
2021/01/22 07:17:55;;;;;;;16.75;5.03;;;2.40;99.90;;;;;;5029398;28;20143;-80
2021/01/22 07:20:21;;;;;;;18.75;5.95;;;2.40;99.90;;;;;;5028190;28;20021;-82
2021/01/22 07:22:59;;;;;;;16.30;5.95;;;2.40;99.90;;;;;;5028058;28;20029;-82
2021/01/22 07:25:32;;;;;;;19.55;5.78;;;2.30;99.90;;;;;;5011661;28;20037;-78
2021/01/22 07:28:20;;;;;;;15.38;5.38;;;2.30;99.90;;;;;;5027942;28;20032;-79
2021/01/22 07:30:46;;;;;;;17.10;4.77;;;2.30;99.90;;;;;;5028410;28;20036;-79
2021/01/22 07:33:35;;;;;;;22.30;5.80;;;2.30;99.90;;;;;;5012130;28;20029;-80
2021/01/22 07:36:11;;;;;;;9.15;3.55;;;2.20;99.90;;;;;;5029534;28;20100;-77
2021/01/22 07:38:39;;;;;;;13.18;4.13;;;2.30;99.90;;;;;;5027918;28;20025;-82
2021/01/22 07:41:06;;;;;;;18.92;4.95;;;2.30;99.90;;;;;;5028107;28;20036;-80
2021/01/22 07:43:32;;;;;;;14.60;5.15;;;2.30;99.90;;;;;;5027368;28;20075;-82
2021/01/22 07:46:05;;;;;;;12.48;5.20;;;2.30;99.90;;;;;;5028820;28;20034;-79
2021/01/22 07:48:30;;;;;;;23.55;5.68;;;2.30;99.90;;;;;;5027110;28;20029;-81
2021/01/22 07:50:56;;;;;;;15.48;6.60;;;2.30;99.90;;;;;;5027475;28;20502;-82
2021/01/22 07:53:22;;;;;;;20.50;6.13;;;2.30;99.90;;;;;;5027244;28;20021;-79
2021/01/22 07:55:52;;;;;;;11.50;4.95;;;2.40;99.90;;;;;;5011192;28;20357;-80
2021/01/22 07:58:18;;;;;;;14.02;5.63;;;2.50;99.90;;;;;;5027214;28;20041;-80
2021/01/22 08:00:44;;;;;;;17.50;4.68;;;2.60;99.90;;;;;;5027351;28;20415;-78
2021/01/22 08:03:13;;;;;;;15.30;5.65;;;2.60;99.90;;;;;;5029698;28;20199;-83
2021/01/22 08:05:40;;;;;;;16.45;5.15;;;2.60;99.90;;;;;;5011524;28;20030;-78
2021/01/22 08:08:27;;;;;;;11.82;4.93;;;2.60;99.90;;;;;;5010939;28;20115;-82
2021/01/22 08:10:53;;;;;;;16.35;4.80;;;2.50;99.90;;;;;;5028353;28;20357;-83
2021/01/22 08:13:19;;;;;;;8.55;3.90;;;2.50;99.90;;;;;;5011738;28;20049;-80
2021/01/22 08:15:45;;;;;;;12.10;4.72;;;2.50;99.90;;;;;;5028599;28;20021;-78
2021/01/22 08:18:13;;;;;;;21.38;5.07;;;2.40;99.90;;;;;;5028040;28;20057;-83
2021/01/22 08:20:48;;;;;;;20.92;5.95;;;2.40;99.90;;;;;;5010934;28;20351;-82
2021/01/22 08:23:14;;;;;;;10.25;4.70;;;2.40;99.90;;;;;;5028830;28;20034;-79
2021/01/22 08:25:40;;;;;;;9.88;3.72;;;2.40;99.90;;;;;;5010874;28;20428;-79
2021/01/22 08:28:08;;;;;;;14.80;4.32;;;2.30;99.90;;;;;;5010210;28;20029;-81
2021/01/22 08:30:36;;;;;;;12.20;4.18;;;2.30;99.90;;;;;;5027744;28;20109;-80
2021/01/22 08:33:02;;;;;;;18.98;5.07;;;2.30;99.90;;;;;;5010486;28;20029;-80
2021/01/22 08:35:30;;;;;;;12.98;5.70;;;2.30;99.90;;;;;;5026969;28;20103;-79
2021/01/22 08:37:56;;;;;;;9.88;4.50;;;2.30;99.90;;;;;;5010588;28;20022;-81
2021/01/22 08:40:34;;;;;;;15.27;5.05;;;2.30;99.90;;;;;;5027757;28;20381;-84
2021/01/22 08:43:07;;;;;;;12.80;4.47;;;2.30;99.90;;;;;;5027043;28;20029;-79
2021/01/22 08:45:32;;;;;;;12.77;4.75;;;2.30;99.90;;;;;;5010498;28;20029;-79
2021/01/22 08:47:58;;;;;;;13.75;4.22;;;2.30;99.90;;;;;;5027875;28;20424;-81
2021/01/22 08:50:25;;;;;;;15.95;4.55;;;2.30;99.90;;;;;;5026665;28;20026;-79
2021/01/22 08:53:03;;;;;;;11.98;4.47;;;2.40;99.90;;;;;;5011737;28;20029;-78
2021/01/22 08:55:29;;;;;;;11.10;5.05;;;2.40;99.90;;;;;;5030813;28;20021;-79
2021/01/22 08:57:59;;;;;;;12.35;4.88;;;2.40;99.90;;;;;;5030769;28;20040;-85
2021/01/22 09:00:25;;;;;;;16.08;4.28;;;2.40;99.90;;;;;;5033004;28;20026;-80
2021/01/22 09:02:51;;;;;;;10.98;4.78;;;2.40;99.90;;;;;;5014414;28;20029;-82
2021/01/22 09:05:17;;;;;;;12.50;4.90;;;2.40;99.90;;;;;;5032873;28;20028;-80
2021/01/22 09:07:43;;;;;;;14.25;4.93;;;2.40;99.90;;;;;;5014265;28;20124;-81
2021/01/22 09:10:30;;;;;;;14.88;4.70;;;2.50;99.90;;;;;;5031832;28;20057;-80
2021/01/22 09:13:11;;;;;;;14.13;5.28;;;2.40;99.90;;;;;;5015339;28;20049;-80
2021/01/22 09:15:38;;;;;;;9.77;4.57;;;2.40;99.90;;;;;;5032466;28;20029;-82
2021/01/22 09:18:21;;;;;;;14.70;5.20;;;2.40;99.90;;;;;;5030260;28;20046;-77
2021/01/22 09:21:09;;;;;;;15.43;5.53;;;2.40;99.90;;;;;;5031296;28;20026;-79
2021/01/22 09:23:36;;;;;;;12.43;5.25;;;2.40;99.90;;;;;;5030165;28;20109;-78
2021/01/22 09:26:02;;;;;;;11.13;5.30;;;2.40;99.90;;;;;;5030000;28;20026;-82
2021/01/22 09:28:28;;;;;;;16.10;6.43;;;2.40;99.90;;;;;;5012351;28;20527;-79
2021/01/22 09:30:54;;;;;;;16.77;5.47;;;2.40;99.90;;;;;;5013699;28;20026;-80
2021/01/22 09:33:19;;;;;;;10.13;5.57;;;2.50;99.90;;;;;;5013368;28;20028;-79
2021/01/22 09:35:45;;;;;;;13.70;5.80;;;2.50;99.90;;;;;;5013284;28;20048;-82
2021/01/22 09:38:11;;;;;;;15.75;5.30;;;2.60;99.90;;;;;;5030605;28;20112;-83
2021/01/22 09:40:37;;;;;;;15.13;6.47;;;2.70;99.90;;;;;;5013081;28;20076;-82
2021/01/22 09:43:03;;;;;;;12.88;5.25;;;2.70;99.90;;;;;;5029103;28;20038;-79
2021/01/22 09:45:29;;;;;;;21.05;5.57;;;2.80;99.90;;;;;;5012729;28;20124;-80
2021/01/22 09:47:55;;;;;;;13.57;4.95;;;2.90;99.90;;;;;;5030288;28;20029;-80
2021/01/22 09:50:21;;;;;;;13.95;4.85;;;3.00;99.90;;;;;;5030398;28;20407;-80
2021/01/22 09:52:47;;;;;;;14.18;4.97;;;3.10;99.90;;;;;;5029239;28;20022;-80
2021/01/22 09:55:17;;;;;;;10.32;5.03;;;3.10;99.90;;;;;;5029171;28;20120;-79
2021/01/22 09:57:43;;;;;;;9.43;4.55;;;3.20;99.90;;;;;;5029377;28;20108;-79
2021/01/22 10:00:10;;;;;;;8.27;4.55;;;3.20;99.90;;;;;;5028546;28;20125;-78
2021/01/22 10:02:36;;;;;;;9.43;4.60;;;3.20;99.90;;;;;;5030193;28;20047;-79
2021/01/22 10:05:04;;;;;;;11.90;4.80;;;3.30;99.90;;;;;;5028842;28;20026;-78
2021/01/22 10:07:29;;;;;;;13.93;7.35;;;3.50;99.90;;;;;;5029758;28;20503;-80
2021/01/22 10:09:55;;;;;;;17.35;6.72;;;3.70;99.90;;;;;;5011836;28;20034;-79
2021/01/22 10:12:21;;;;;;;8.90;4.32;;;3.90;99.90;;;;;;5028612;28;20022;-78
2021/01/22 10:14:47;;;;;;;19.88;5.22;;;4.00;99.90;;;;;;5012304;28;20037;-82
2021/01/22 10:17:13;;;;;;;10.65;4.88;;;4.20;99.90;;;;;;5029743;28;20419;-79
2021/01/22 10:19:39;;;;;;;11.02;4.75;;;4.40;99.90;;;;;;5028417;28;20494;-79
2021/01/22 10:22:05;;;;;;;10.00;4.68;;;4.70;99.90;;;;;;5028729;28;20040;-80
2021/01/22 10:24:31;;;;;;;9.75;4.43;;;5.10;99.90;;;;;;5028497;28;20405;-77
2021/01/22 10:26:57;;;;;;;9.00;4.03;;;5.40;99.90;;;;;;5029831;28;20384;-80
2021/01/22 10:29:23;;;;;;;14.32;5.57;;;5.60;99.90;;;;;;5029678;28;20029;-81
2021/01/22 10:31:48;;;;;;;13.93;7.88;;;5.70;99.90;;;;;;5030467;28;20029;-80
2021/01/22 10:34:14;;;;;;;15.15;5.97;;;5.80;99.90;;;;;;5028547;28;20022;-82
2021/01/22 10:36:40;;;;;;;12.48;6.68;;;5.80;99.90;;;;;;5028164;28;20098;-79
2021/01/22 10:39:06;;;;;;;12.55;6.20;;;5.90;99.90;;;;;;5011683;28;20038;-81
2021/01/22 10:41:32;;;;;;;11.25;5.05;;;5.90;99.90;;;;;;5028156;28;20029;-80
2021/01/22 10:43:58;;;;;;;15.85;6.50;;;5.90;99.90;;;;;;5011456;28;20500;-80
2021/01/22 10:46:24;;;;;;;9.73;5.38;;;5.80;99.90;;;;;;5029016;28;20038;-79
2021/01/22 10:48:50;;;;;;;12.73;5.65;;;5.70;99.90;;;;;;5027972;28;20036;-78
2021/01/22 10:51:15;;;;;;;9.50;5.45;;;5.70;99.90;;;;;;5027553;28;20025;-79
2021/01/22 10:53:41;;;;;;;14.27;5.57;;;5.80;99.90;;;;;;5028986;28;20109;-81
2021/01/22 10:56:07;;;;;;;10.00;6.22;;;5.90;99.90;;;;;;5028089;28;20033;-81
2021/01/22 10:58:33;;;;;;;12.00;6.05;;;6.00;99.90;;;;;;5027872;28;20029;-79
2021/01/22 11:00:59;;;;;;;13.25;5.10;;;6.10;99.90;;;;;;5011858;28;20143;-78
2021/01/22 11:03:28;;;;;;;13.90;5.55;;;6.30;99.90;;;;;;5029122;28;20033;-82
2021/01/22 11:05:54;;;;;;;11.02;6.45;;;6.40;99.90;;;;;;5011315;28;20090;-81
2021/01/22 11:08:20;;;;;;;14.50;7.18;;;6.40;99.90;;;;;;5027672;28;20021;-79
2021/01/22 11:10:46;;;;;;;12.55;5.82;;;6.30;99.90;;;;;;5029591;28;20036;-81
2021/01/22 11:13:11;;;;;;;17.05;8.15;;;6.10;99.90;;;;;;5011847;28;20336;-81
2021/01/22 11:15:37;;;;;;;21.92;10.77;;;6.00;99.90;;;;;;5011827;28;20076;-79
2021/01/22 11:18:03;;;;;;;18.95;8.00;;;6.00;99.90;;;;;;5011311;28;20059;-83
2021/01/22 11:20:29;;;;;;;16.15;8.00;;;6.00;99.90;;;;;;5027805;28;20032;-80
2021/01/22 11:22:55;;;;;;;13.23;6.57;;;6.00;99.90;;;;;;5029677;28;20064;-81
2021/01/22 11:25:21;;;;;;;17.77;8.25;;;6.10;99.90;;;;;;5027719;28;20025;-82
2021/01/22 11:27:48;;;;;;;24.52;8.90;;;6.30;99.90;;;;;;5010565;28;20040;-78
2021/01/22 11:30:15;;;;;;;19.00;9.23;;;6.50;99.90;;;;;;5027524;28;20029;-82
2021/01/22 11:32:40;;;;;;;16.50;9.20;;;6.60;99.90;;;;;;5028827;28;20064;-81
2021/01/22 11:35:10;;;;;;;19.17;8.60;;;6.70;99.90;;;;;;5028623;28;20049;-82
2021/01/22 11:37:47;;;;;;;14.77;7.25;;;7.00;99.90;;;;;;5027146;28;20028;-81
2021/01/22 11:40:14;;;;;;;14.82;6.88;;;7.20;99.90;;;;;;5026764;28;20119;-82
2021/01/22 11:42:40;;;;;;;15.98;6.45;;;7.20;99.90;;;;;;5028275;28;20025;-78
2021/01/22 11:45:07;;;;;;;9.43;5.57;;;7.30;99.90;;;;;;5028222;28;20030;-79
2021/01/22 11:47:33;;;;;;;9.85;5.60;;;7.70;99.90;;;;;;5026081;28;20064;-80
2021/01/22 11:49:58;;;;;;;8.50;5.05;;;8.30;99.90;;;;;;5026667;28;20026;-79
2021/01/22 11:52:24;;;;;;;10.18;5.40;;;9.10;99.90;;;;;;5028187;28;20033;-81
2021/01/22 11:54:50;;;;;;;9.80;5.78;;;9.70;99.90;;;;;;5026736;28;20041;-79
2021/01/22 11:57:16;;;;;;;16.90;6.60;;;9.90;99.90;;;;;;5026928;28;20124;-81
2021/01/22 11:59:42;;;;;;;11.82;6.30;;;9.70;99.30;;;;;;5026402;28;20029;-79
2021/01/22 12:02:08;;;;;;;10.93;5.07;;;9.60;99.50;;;;;;5026585;28;20502;-80
2021/01/22 12:04:34;;;;;;;10.50;5.00;;;9.40;98.90;;;;;;5010505;28;20123;-79
2021/01/22 12:06:59;;;;;;;9.75;4.53;;;9.10;98.20;;;;;;5010191;28;20026;-78
2021/01/22 12:09:25;;;;;;;17.15;6.57;;;8.70;98.00;;;;;;5026424;28;20117;-79
2021/01/22 12:11:51;;;;;;;13.70;6.20;;;8.20;98.00;;;;;;5026884;28;20029;-77
2021/01/22 12:14:16;;;;;;;10.77;5.75;;;7.90;98.40;;;;;;5010034;28;20033;-80
2021/01/22 12:16:43;;;;;;;11.93;5.07;;;7.80;99.20;;;;;;5009781;28;20392;-80
2021/01/22 12:19:09;;;;;;;10.70;4.60;;;8.00;99.90;;;;;;5027793;28;20113;-81
2021/01/22 12:21:35;;;;;;;10.95;4.45;;;8.70;99.90;;;;;;5026432;28;20117;-82
2021/01/22 12:24:00;;;;;;;7.15;3.08;;;9.60;99.90;;;;;;5010093;28;20362;-81
2021/01/22 12:26:26;;;;;;;7.35;3.00;;;10.40;99.90;;;;;;5027213;28;20110;-80
2021/01/22 12:28:52;;;;;;;8.48;3.60;;;11.10;99.90;;;;;;5008817;28;20033;-82
2021/01/22 12:31:17;;;;;;;11.73;3.28;;;11.60;99.40;;;;;;5026324;28;20438;-82
2021/01/22 12:33:43;;;;;;;8.00;3.05;;;11.60;97.40;;;;;;5026254;28;20143;-84
2021/01/22 12:36:09;;;;;;;10.25;5.22;;;11.50;96.80;;;;;;5025859;28;20040;-80
2021/01/22 12:38:35;;;;;;;9.40;3.63;;;11.60;97.20;;;;;;5009399;28;20026;-79
2021/01/22 12:41:02;;;;;;;9.65;4.68;;;11.80;97.10;;;;;;5025797;28;20017;-84
2021/01/22 12:43:28;;;;;;;11.75;3.85;;;12.10;96.90;;;;;;5009379;28;20113;-80
2021/01/22 12:45:54;;;;;;;6.93;2.85;;;12.40;96.10;;;;;;5025522;28;20105;-81
2021/01/22 12:48:20;;;;;;;7.18;2.75;;;12.50;95.80;;;;;;5025560;28;20033;-80
2021/01/22 12:50:45;;;;;;;10.05;3.25;;;12.60;94.70;;;;;;5009039;28;20512;-83